createdAt,value
2023-07-27T00:00:25.698Z,99766.88
2023-07-27T00:02:53.425Z,99767.72
2023-07-27T00:05:22.510Z,99767.72
2023-07-27T00:07:50.108Z,99759.88
2023-07-27T00:10:17.999Z,99755.53
2023-07-27T00:12:45.604Z,99751.22
2023-07-27T00:15:13.253Z,99752.94
2023-07-27T00:17:42.456Z,99750.31
2023-07-27T00:20:11.203Z,99751.13
2023-07-27T00:22:40.326Z,99739.88
2023-07-27T00:25:08.844Z,99741.63
2023-07-27T00:27:36.532Z,99738.13
2023-07-27T00:30:04.444Z,99738.13
2023-07-27T00:32:32.069Z,99750.19
2023-07-27T00:35:01.542Z,99736.38
2023-07-27T00:37:29.124Z,99737.22
2023-07-27T00:39:58.177Z,99730.28
2023-07-27T00:42:25.912Z,99736.31
2023-07-27T00:44:53.598Z,99729.41
2023-07-27T00:47:21.276Z,99731.94
2023-07-27T00:49:48.945Z,99732.78
2023-07-27T00:52:16.606Z,99731.91
2023-07-27T00:54:44.280Z,99727.53
2023-07-27T00:57:13.281Z,99723.16
2023-07-27T00:59:41.829Z,99712.81
2023-07-27T01:02:09.484Z,99702.47
2023-07-27T01:04:37.816Z,99708.47
2023-07-27T01:07:05.718Z,99711.06
2023-07-27T01:09:33.466Z,99700.66
2023-07-27T01:12:09.301Z,99700.66
2023-07-27T01:14:45.371Z,99704.94
2023-07-27T01:17:19.854Z,99698.03
2023-07-27T01:20:01.499Z,99685.09
2023-07-27T01:23:07.349Z,99692.91
2023-07-27T01:25:54.710Z,99681.66
2023-07-27T01:28:34.991Z,99683.38
2023-07-27T01:31:10.574Z,99673.84
2023-07-27T01:33:43.149Z,99673.84
2023-07-27T01:36:15.176Z,99673.00
2023-07-27T01:38:46.453Z,99668.69
2023-07-27T01:41:15.734Z,99660.97
2023-07-27T01:43:44.523Z,99657.53
2023-07-27T01:46:15.712Z,99660.97
2023-07-27T01:48:45.154Z,99658.38
2023-07-27T01:51:14.581Z,99654.94
2023-07-27T01:53:44.294Z,99656.66
2023-07-27T01:56:13.778Z,99654.94
2023-07-27T01:58:42.259Z,99650.66
2023-07-27T02:01:10.312Z,99653.22
2023-07-27T02:03:39.542Z,99644.59
2023-07-27T02:06:07.197Z,99649.75
2023-07-27T02:08:34.844Z,99641.13
2023-07-27T02:11:05.334Z,99640.28
2023-07-27T02:13:40.090Z,99638.59
2023-07-27T02:16:14.513Z,99636.91
2023-07-27T02:18:46.295Z,99625.72
2023-07-27T02:21:16.471Z,99627.41
2023-07-27T02:23:44.631Z,99613.66
2023-07-27T02:26:13.499Z,99620.56
2023-07-27T02:28:41.102Z,99612.78
2023-07-27T02:31:08.813Z,99605.91
2023-07-27T02:33:36.687Z,99599.84
2023-07-27T02:36:06.147Z,99592.09
2023-07-27T02:38:36.268Z,99598.16
2023-07-27T02:41:03.901Z,99593.88
2023-07-27T02:43:31.718Z,99596.47
2023-07-27T02:46:00.607Z,99594.75
2023-07-27T02:48:29.553Z,99589.59
2023-07-27T02:50:57.240Z,99593.06
2023-07-27T02:53:26.120Z,99593.03
2023-07-27T02:56:00.240Z,99592.19
2023-07-27T02:58:29.824Z,99591.28
2023-07-27T03:00:59.867Z,99591.28
2023-07-27T03:03:28.135Z,99582.66
2023-07-27T03:06:07.271Z,99585.22
2023-07-27T03:08:36.429Z,99591.28
2023-07-27T03:11:04.802Z,99582.66
2023-07-27T03:13:33.230Z,99587.00
2023-07-27T03:16:03.491Z,99575.78
2023-07-27T03:18:31.559Z,99568.94
2023-07-27T03:20:59.250Z,99579.28
2023-07-27T03:23:26.988Z,99571.56
2023-07-27T03:25:55.934Z,99576.75
2023-07-27T03:28:23.650Z,99570.72
2023-07-27T03:30:53.569Z,99561.25
2023-07-27T03:33:21.339Z,99569.00
2023-07-27T03:35:49.059Z,99570.75
2023-07-27T03:38:17.353Z,99564.69
2023-07-27T03:40:46.057Z,99558.63
2023-07-27T03:43:15.028Z,99556.94
2023-07-27T03:45:43.760Z,99556.94
2023-07-27T03:48:11.444Z,99557.78
2023-07-27T03:50:38.228Z,99559.50
2023-07-27T03:53:05.975Z,99555.19
2023-07-27T03:55:34.300Z,99547.44
2023-07-27T03:58:01.940Z,99558.66
2023-07-27T04:00:30.992Z,99558.63
2023-07-27T04:02:58.717Z,99565.53
2023-07-27T04:05:26.413Z,99560.34
2023-07-27T04:07:54.201Z,99568.97
2023-07-27T04:10:21.896Z,99562.13
2023-07-27T04:12:49.632Z,99556.03
2023-07-27T04:15:17.523Z,99561.22
2023-07-27T04:17:46.590Z,99556.88
2023-07-27T04:20:14.379Z,99556.91
2023-07-27T04:22:42.143Z,99553.47
2023-07-27T04:25:10.619Z,99563.84
2023-07-27T04:27:39.179Z,99572.50
2023-07-27T04:30:08.554Z,99562.16
2023-07-27T04:32:36.220Z,99562.16
2023-07-27T04:35:07.280Z,99562.19
2023-07-27T04:37:36.191Z,99565.63
2023-07-27T04:40:06.280Z,99567.34
2023-07-27T04:42:33.944Z,99569.94
2023-07-27T04:45:01.583Z,99564.78
2023-07-27T04:47:29.310Z,99565.63
2023-07-27T04:49:57.099Z,99572.56
2023-07-27T04:52:26.129Z,99569.09
2023-07-27T04:54:53.806Z,99562.19
2023-07-27T04:57:21.421Z,99563.97
2023-07-27T04:59:49.046Z,99565.72
2023-07-27T05:02:16.774Z,99562.28
2023-07-27T05:04:44.415Z,99559.72
2023-07-27T05:07:12.050Z,99556.25
2023-07-27T05:09:40.993Z,99547.63
2023-07-27T05:12:09.099Z,99540.69
2023-07-27T05:14:36.745Z,99551.94
2023-07-27T05:17:04.460Z,99545.03
2023-07-27T05:19:32.110Z,99544.19
2023-07-27T05:21:59.896Z,99542.47
2023-07-27T05:24:27.679Z,99538.13
2023-07-27T05:26:56.605Z,99534.66
2023-07-27T05:29:24.239Z,99527.75
2023-07-27T05:31:52.699Z,99540.72
2023-07-27T05:34:20.386Z,99532.91
2023-07-27T05:36:48.048Z,99533.78
2023-07-27T05:39:15.690Z,99538.06
2023-07-27T05:41:43.350Z,99535.44
2023-07-27T05:44:12.322Z,99532.91
2023-07-27T05:46:39.967Z,99539.75
2023-07-27T05:49:09.820Z,99532.81
2023-07-27T05:51:39.273Z,99531.00
2023-07-27T05:54:06.880Z,99529.19
2023-07-27T05:56:34.888Z,99536.94
2023-07-27T05:59:02.809Z,99531.63
2023-07-27T06:01:32.109Z,99531.53
2023-07-27T06:04:07.600Z,99535.81
2023-07-27T06:06:36.984Z,99537.41
2023-07-27T06:09:05.298Z,99535.59
2023-07-27T06:11:33.029Z,99524.19
2023-07-27T06:14:00.683Z,99519.78
2023-07-27T06:16:28.360Z,99524.03
2023-07-27T06:18:57.710Z,99517.91
2023-07-27T06:21:25.306Z,99518.63
2023-07-27T06:23:52.991Z,99517.66
2023-07-27T06:26:20.603Z,99517.53
2023-07-27T06:28:48.185Z,99519.16
2023-07-27T06:31:15.965Z,99508.59
2023-07-27T06:33:44.602Z,99513.66
2023-07-27T06:36:15.156Z,99519.69
2023-07-27T06:38:43.140Z,99521.38
2023-07-27T06:41:11.065Z,99520.47
2023-07-27T06:43:38.668Z,99522.19
2023-07-27T06:46:06.333Z,99522.09
2023-07-27T06:48:34.038Z,99516.84
2023-07-27T06:51:01.780Z,99510.69
2023-07-27T06:53:30.887Z,99507.16
2023-07-27T06:55:59.133Z,99506.28
2023-07-27T06:58:26.977Z,99496.81
2023-07-27T07:00:56.044Z,99490.66
2023-07-27T07:03:23.887Z,99499.31
2023-07-27T07:05:51.729Z,99501.13
2023-07-27T07:08:20.608Z,99498.63
2023-07-27T07:10:49.574Z,99499.41
2023-07-27T07:13:17.216Z,99490.72
2023-07-27T07:15:46.281Z,99493.22
2023-07-27T07:18:13.920Z,99488.78
2023-07-27T07:20:41.597Z,99492.09
2023-07-27T07:23:09.188Z,99494.63
2023-07-27T07:25:36.819Z,99493.72
2023-07-27T07:28:06.018Z,99489.41
2023-07-27T07:30:33.790Z,99494.63
2023-07-27T07:33:01.532Z,99487.63
2023-07-27T07:35:29.210Z,99493.56
2023-07-27T07:37:56.799Z,99495.22
2023-07-27T07:40:25.650Z,99481.22
2023-07-27T07:42:53.727Z,99477.63
2023-07-27T07:45:22.621Z,99467.94
2023-07-27T07:47:50.595Z,99469.69
2023-07-27T07:50:18.444Z,99469.69
2023-07-27T07:52:47.601Z,99460.19
2023-07-27T07:55:17.598Z,99451.25
2023-07-27T07:57:45.253Z,99463.22
2023-07-27T08:00:14.464Z,99450.25
2023-07-27T08:02:43.736Z,99447.69
2023-07-27T08:05:11.439Z,99448.50
2023-07-27T08:07:39.041Z,99445.91
2023-07-27T08:10:07.917Z,99445.03
2023-07-27T08:12:36.071Z,99435.53
2023-07-27T08:15:04.573Z,99425.94
2023-07-27T08:17:32.413Z,99414.66
2023-07-27T08:20:01.465Z,99414.72
2023-07-27T08:22:29.101Z,99407.75
2023-07-27T08:25:03.581Z,99400.84
2023-07-27T08:27:42.553Z,99400.78
2023-07-27T08:30:10.931Z,99397.19
2023-07-27T08:32:38.657Z,99403.97
2023-07-27T08:35:08.399Z,99402.28
2023-07-27T08:37:36.097Z,99408.44
2023-07-27T08:40:04.802Z,99414.28
2023-07-27T08:42:33.663Z,99427.25
2023-07-27T08:45:01.955Z,99422.81
2023-07-27T08:47:30.677Z,99426.19
2023-07-27T08:49:58.556Z,99421.81
2023-07-27T08:52:29.576Z,99426.41
2023-07-27T08:54:57.195Z,99429.09
2023-07-27T08:57:24.834Z,99435.16
2023-07-27T08:59:52.970Z,99428.19
2023-07-27T09:02:21.557Z,99431.72
2023-07-27T09:04:49.293Z,99433.38
2023-07-27T09:07:17.080Z,99440.47
2023-07-27T09:09:52.093Z,99437.00
2023-07-27T09:12:20.483Z,99437.00
2023-07-27T09:14:48.133Z,99436.25
2023-07-27T09:17:16.191Z,99440.72
2023-07-27T09:19:45.489Z,99450.25
2023-07-27T09:22:14.692Z,99426.94
2023-07-27T09:24:42.822Z,99427.06
2023-07-27T09:27:13.054Z,99429.69
2023-07-27T09:29:42.792Z,99420.22
2023-07-27T09:32:12.373Z,99427.06
2023-07-27T09:34:40.043Z,99434.75
2023-07-27T09:37:08.396Z,99430.19
2023-07-27T09:39:43.842Z,99429.97
2023-07-27T09:42:14.372Z,99427.00
2023-07-27T09:44:48.925Z,99434.72
2023-07-27T09:47:21.014Z,99403.03
2023-07-27T09:49:50.551Z,99404.47
2023-07-27T09:52:20.358Z,99394.56
2023-07-27T09:54:49.342Z,99393.81
2023-07-27T09:57:18.950Z,99384.56
2023-07-27T09:59:46.547Z,99384.66
2023-07-27T10:02:17.239Z,99394.00
2023-07-27T10:04:50.936Z,99389.44
2023-07-27T10:07:19.679Z,99390.84
2023-07-27T10:09:47.817Z,99388.38
2023-07-27T10:12:29.762Z,99389.53
2023-07-27T10:15:22.654Z,99378.38
2023-07-27T10:17:52.061Z,99365.72
2023-07-27T10:20:25.587Z,99363.22
2023-07-27T10:22:53.520Z,99365.38
2023-07-27T10:25:21.338Z,99363.28
2023-07-27T10:27:58.921Z,99357.72
2023-07-27T10:30:26.526Z,99343.94
2023-07-27T10:33:17.969Z,99349.09
2023-07-27T10:36:04.829Z,99351.78
2023-07-27T10:38:34.233Z,99353.63
2023-07-27T10:41:15.005Z,99351.56
2023-07-27T10:44:18.957Z,99354.88
2023-07-27T10:46:47.306Z,99359.41
2023-07-27T10:49:17.564Z,99358.97
2023-07-27T10:51:58.774Z,99354.84
2023-07-27T10:54:25.749Z,99348.28
2023-07-27T10:56:53.596Z,99357.22
2023-07-27T10:59:23.933Z,99352.72
2023-07-27T11:01:52.377Z,99346.22
2023-07-27T11:04:21.572Z,99343.34
2023-07-27T11:06:49.185Z,99340.59
2023-07-27T11:09:18.694Z,99351.28
2023-07-27T11:11:46.587Z,99339.44
2023-07-27T11:14:14.257Z,99340.69
2023-07-27T11:16:43.588Z,99323.25
2023-07-27T11:19:11.593Z,99328.16
2023-07-27T11:21:41.930Z,99322.63
2023-07-27T11:24:10.778Z,99315.25
2023-07-27T11:26:39.417Z,99317.00
2023-07-27T11:29:07.817Z,99324.88
2023-07-27T11:31:35.468Z,99322.75
2023-07-27T11:34:07.233Z,99324.59
2023-07-27T11:36:37.041Z,99312.19
2023-07-27T11:39:04.984Z,99311.44
2023-07-27T11:44:05.881Z,99307.81
2023-07-27T11:46:41.846Z,99306.09
2023-07-27T11:49:11.637Z,99319.72
2023-07-27T11:51:41.157Z,99317.56
2023-07-27T11:54:10.436Z,99323.88
2023-07-27T11:56:39.084Z,99307.59
2023-07-27T11:59:08.448Z,99316.28
2023-07-27T12:01:36.622Z,99320.50
2023-07-27T12:04:06.512Z,99315.03
2023-07-27T12:06:36.004Z,99321.22
2023-07-27T12:09:06.466Z,99320.88
2023-07-27T12:14:05.831Z,99318.56
2023-07-27T12:19:09.782Z,99308.66
2023-07-27T12:21:40.579Z,99308.19
2023-07-27T12:34:14.676Z,99304.22
2023-07-27T12:37:36.051Z,99298.56
2023-07-27T12:39:32.475Z,99304.91
2023-07-27T12:44:32.339Z,99286.41
2023-07-27T12:46:59.980Z,99294.75
2023-07-27T12:49:27.619Z,99294.38
2023-07-27T12:51:56.715Z,99289.00
2023-07-27T12:54:24.374Z,99286.25
2023-07-27T12:56:52.242Z,99273.94
2023-07-27T12:59:19.776Z,99278.50
2023-07-27T13:01:47.356Z,99275.63
2023-07-27T13:04:15.041Z,99271.56
2023-07-27T13:06:42.640Z,99269.63
2023-07-27T13:09:11.551Z,99276.91
2023-07-27T13:11:39.428Z,99277.94
2023-07-27T13:14:07.132Z,99265.66
2023-07-27T13:16:35.765Z,99265.03
2023-07-27T13:19:03.424Z,99267.53
2023-07-27T13:21:31.089Z,99267.63
2023-07-27T13:23:58.768Z,99274.00
2023-07-27T13:26:27.788Z,99266.22
2023-07-27T13:28:55.372Z,99265.19
2023-07-27T13:31:24.148Z,99270.34
2023-07-27T13:33:52.128Z,99261.75
2023-07-27T13:36:22.864Z,99269.31
2023-07-27T13:38:50.503Z,99275.94
2023-07-27T13:41:18.091Z,99267.06
2023-07-27T13:43:47.070Z,99272.00
2023-07-27T13:46:14.693Z,99261.50
2023-07-27T13:48:42.353Z,99255.50
2023-07-27T13:51:10.757Z,99267.34
2023-07-27T13:53:38.621Z,99265.66
2023-07-27T13:56:07.027Z,99268.97
2023-07-27T13:58:34.641Z,99266.13
2023-07-27T14:01:03.857Z,99258.34
2023-07-27T14:03:31.556Z,99261.75
2023-07-27T14:05:59.412Z,99255.31
2023-07-27T14:08:27.049Z,99255.09
2023-07-27T14:10:55.229Z,99258.63
2023-07-27T14:13:22.904Z,99246.44
2023-07-27T14:15:50.488Z,99249.72
2023-07-27T14:18:19.454Z,99244.38
2023-07-27T14:20:47.093Z,99242.25
2023-07-27T14:23:14.692Z,99238.69
2023-07-27T14:25:42.250Z,99236.69
2023-07-27T14:28:13.722Z,99230.41
2023-07-27T14:30:41.837Z,99229.81
2023-07-27T14:33:09.529Z,99224.75
2023-07-27T14:35:38.665Z,99224.66
2023-07-27T14:38:06.230Z,99223.50
2023-07-27T14:43:04.507Z,99214.22
2023-07-27T14:45:34.015Z,99220.69
2023-07-27T14:48:01.739Z,99222.69
2023-07-27T14:53:01.684Z,99216.06
2023-07-27T14:55:29.316Z,99210.63
2023-07-27T14:57:59.765Z,99213.00
2023-07-27T15:00:35.603Z,99210.56
2023-07-27T15:03:05.471Z,99209.94
2023-07-27T15:05:33.870Z,99199.97
2023-07-27T15:08:04.358Z,99203.28
2023-07-27T15:10:33.330Z,99199.28
2023-07-27T15:13:02.298Z,99198.13
2023-07-27T15:15:30.430Z,99199.22
2023-07-27T15:17:58.326Z,99201.91
2023-07-27T15:20:26.234Z,99189.81
2023-07-27T15:22:54.368Z,99181.81
2023-07-27T15:25:23.373Z,99185.84
2023-07-27T15:27:51.338Z,99199.00
2023-07-27T15:30:18.951Z,99189.03
2023-07-27T15:32:46.545Z,99173.25
2023-07-27T15:35:14.214Z,99187.25
2023-07-27T15:37:41.789Z,99186.84
2023-07-27T15:40:10.559Z,99177.91
2023-07-27T15:42:39.513Z,99175.16
2023-07-27T15:45:08.561Z,99173.63
2023-07-27T15:47:36.222Z,99176.03
2023-07-27T15:50:04.089Z,99181.78
2023-07-27T15:52:31.960Z,99184.97
2023-07-27T15:54:59.591Z,99180.75
2023-07-27T15:57:27.315Z,99168.34
2023-07-27T16:00:01.085Z,99168.63
2023-07-27T16:02:29.241Z,99159.25
2023-07-27T16:04:57.320Z,99166.34
2023-07-27T16:07:25.112Z,99174.28
2023-07-27T16:09:55.972Z,99163.75
2023-07-27T16:12:26.644Z,99168.06
2023-07-27T16:14:56.949Z,99177.56
2023-07-27T16:17:27.409Z,99161.22
2023-07-27T16:19:55.493Z,99162.91
2023-07-27T16:22:23.829Z,99157.47
2023-07-27T16:24:52.180Z,99160.50
2023-07-27T16:27:20.983Z,99159.59
2023-07-27T16:29:49.051Z,99170.88
2023-07-27T16:32:16.683Z,99159.97
2023-07-27T16:34:45.607Z,99157.69
2023-07-27T16:37:13.365Z,99165.25
2023-07-27T16:39:40.988Z,99161.97
2023-07-27T16:42:08.936Z,99163.50
2023-07-27T16:44:36.635Z,99165.56
2023-07-27T16:47:04.322Z,99166.41
2023-07-27T16:49:32.186Z,99172.59
2023-07-27T16:52:01.167Z,99168.38
2023-07-27T16:54:28.876Z,99163.00
2023-07-27T16:56:56.496Z,99163.84
2023-07-27T16:59:26.586Z,99164.97
2023-07-27T17:01:54.533Z,99166.09
2023-07-27T17:04:24.188Z,99169.97
2023-07-27T17:06:51.797Z,99171.56
2023-07-27T17:09:21.220Z,99161.16
2023-07-27T17:11:48.829Z,99164.72
2023-07-27T17:14:16.446Z,99173.78
2023-07-27T17:16:44.114Z,99168.78
2023-07-27T17:19:11.772Z,99164.06
2023-07-27T17:21:39.470Z,99181.59
2023-07-27T17:24:09.186Z,99171.88
2023-07-27T17:26:38.321Z,99170.97
2023-07-27T17:29:05.901Z,99171.09
2023-07-27T17:31:34.046Z,99163.91
2023-07-27T17:34:03.399Z,99167.47
2023-07-27T17:36:31.462Z,99166.66
2023-07-27T17:38:59.125Z,99170.97
2023-07-27T17:41:26.712Z,99166.09
2023-07-27T17:43:55.645Z,99165.53
2023-07-27T17:46:23.372Z,99180.13
2023-07-27T17:48:50.976Z,99176.84
2023-07-27T17:51:18.617Z,99175.25
2023-07-27T17:53:46.254Z,99174.03
2023-07-27T17:56:13.995Z,99164.56
2023-07-27T17:58:41.589Z,99172.56
2023-07-27T18:01:10.596Z,99173.53
2023-07-27T18:03:38.463Z,99173.78
2023-07-27T18:06:08.980Z,99176.59
2023-07-27T18:08:36.632Z,99172.38
2023-07-27T18:11:10.304Z,99183.78
2023-07-27T18:13:38.212Z,99189.22
2023-07-27T18:16:10.464Z,99196.41
2023-07-27T18:18:38.203Z,99202.75
2023-07-27T18:21:10.432Z,99209.00
2023-07-27T18:23:38.157Z,99213.59
2023-07-27T18:26:06.495Z,99210.28
2023-07-27T18:28:34.062Z,99217.38
2023-07-27T18:31:05.204Z,99211.38
2023-07-27T18:33:34.639Z,99203.63
2023-07-27T18:36:11.832Z,99210.00
2023-07-27T18:38:41.310Z,99195.47
2023-07-27T18:41:09.075Z,99206.22
2023-07-27T18:43:37.104Z,99205.44
2023-07-27T18:46:04.972Z,99214.41
2023-07-27T18:48:34.034Z,99207.53
2023-07-27T18:51:02.498Z,99214.63
2023-07-27T18:53:30.102Z,99219.09
2023-07-27T18:55:58.237Z,99220.16
2023-07-27T18:58:25.808Z,99215.06
2023-07-27T19:00:53.543Z,99209.16
2023-07-27T19:03:21.157Z,99215.41
2023-07-27T19:05:50.089Z,99210.31
2023-07-27T19:08:20.335Z,99217.38
2023-07-27T19:10:48.032Z,99219.19
2023-07-27T19:13:15.665Z,99226.34
2023-07-27T19:15:48.342Z,99231.78
2023-07-27T19:18:17.281Z,99226.63
2023-07-27T19:20:44.966Z,99232.00
2023-07-27T19:23:13.875Z,99228.66
2023-07-27T19:25:42.313Z,99225.13
2023-07-27T19:28:10.935Z,99221.72
2023-07-27T19:30:39.876Z,99222.09
2023-07-27T19:33:08.076Z,99225.88
2023-07-27T19:35:36.049Z,99223.47
2023-07-27T19:38:05.524Z,99226.22
2023-07-27T19:40:34.636Z,99223.13
2023-07-27T19:43:02.273Z,99220.78
2023-07-27T19:45:29.947Z,99221.38
2023-07-27T19:47:57.673Z,99224.22
2023-07-27T19:50:25.337Z,99224.47
2023-07-27T19:52:52.977Z,99228.94
2023-07-27T19:55:20.598Z,99233.59
2023-07-27T19:57:49.532Z,99235.59
2023-07-27T20:00:17.511Z,99230.50
2023-07-27T20:02:45.928Z,99237.75
2023-07-27T20:05:13.870Z,99241.34
2023-07-27T20:07:41.558Z,99243.16
2023-07-27T20:10:09.740Z,99248.50
2023-07-27T20:12:37.363Z,99246.06
2023-07-27T20:15:07.447Z,99249.63
2023-07-27T20:17:35.885Z,99242.69
2023-07-27T20:20:03.800Z,99247.19
2023-07-27T20:22:31.411Z,99245.47
2023-07-27T20:24:59.044Z,99245.53
2023-07-27T20:27:26.624Z,99249.97
2023-07-27T20:29:54.222Z,99242.13
2023-07-27T20:32:23.496Z,99245.72
2023-07-27T20:34:51.089Z,99239.59
2023-07-27T20:37:18.678Z,99245.53
2023-07-27T20:39:47.647Z,99237.81
2023-07-27T20:42:16.292Z,99243.19
2023-07-27T20:44:44.193Z,99241.59
2023-07-27T20:47:11.867Z,99241.47
2023-07-27T20:49:40.832Z,99240.63
2023-07-27T20:52:09.152Z,99237.22
2023-07-27T20:54:36.987Z,99233.88
2023-07-27T20:57:04.883Z,99233.13
2023-07-27T20:59:34.048Z,99234.94
2023-07-27T21:02:01.915Z,99230.66
2023-07-27T21:04:29.638Z,99226.31
2023-07-27T21:07:00.573Z,99226.31
2023-07-27T21:09:28.267Z,99233.22
2023-07-27T21:11:55.901Z,99222.84
2023-07-27T21:14:23.647Z,99219.44
2023-07-27T21:16:51.273Z,99225.50
2023-07-27T21:19:18.879Z,99215.06
2023-07-27T21:21:46.510Z,99227.31
2023-07-27T21:24:15.862Z,99215.22
2023-07-27T21:26:44.360Z,99216.13
2023-07-27T21:29:11.947Z,99208.41
2023-07-27T21:31:39.545Z,99209.38
2023-07-27T21:34:11.609Z,99205.03
2023-07-27T21:36:39.205Z,99210.28
2023-07-27T21:39:06.798Z,99200.78
2023-07-27T21:41:35.731Z,99198.19
2023-07-27T21:44:03.308Z,99194.81
2023-07-27T21:46:31.030Z,99187.88
2023-07-27T21:48:58.684Z,99192.22
2023-07-27T21:51:26.296Z,99191.41
2023-07-27T21:53:53.879Z,99191.50
2023-07-27T21:56:21.575Z,99202.78
2023-07-27T21:58:50.527Z,99187.94
2023-07-27T22:01:18.136Z,99203.66
2023-07-27T22:03:45.797Z,99195.03
2023-07-27T22:06:13.397Z,99186.28
2023-07-27T22:08:41.040Z,99195.09
2023-07-27T22:11:08.618Z,99188.31
2023-07-27T22:13:36.265Z,99187.50
2023-07-27T22:16:05.646Z,99186.66
2023-07-27T22:18:33.367Z,99192.81
2023-07-27T22:21:01.170Z,99194.56
2023-07-27T22:23:29.671Z,99191.00
2023-07-27T22:25:57.285Z,99190.97
2023-07-27T22:28:25.157Z,99189.25
2023-07-27T22:30:52.930Z,99191.88
2023-07-27T22:33:21.942Z,99194.56
2023-07-27T22:35:49.613Z,99184.09
2023-07-27T22:38:17.540Z,99179.78
2023-07-27T22:40:53.187Z,99179.78
2023-07-27T22:43:20.823Z,99179.13
2023-07-27T22:45:49.506Z,99186.94
2023-07-27T22:48:17.182Z,99185.13
2023-07-27T22:50:48.529Z,99167.72
2023-07-27T22:53:16.814Z,99167.72
2023-07-27T22:55:45.352Z,99172.09
2023-07-27T22:58:13.566Z,99173.00
2023-07-27T23:00:41.295Z,99165.97
2023-07-27T23:03:09.875Z,99164.28
2023-07-27T23:05:39.169Z,99148.63
2023-07-27T23:08:08.999Z,99151.31
2023-07-27T23:10:38.484Z,99158.44
2023-07-27T23:13:06.104Z,99162.84
2023-07-27T23:15:35.992Z,99160.13
2023-07-27T23:18:04.281Z,99166.22
2023-07-27T23:20:31.921Z,99171.34
2023-07-27T23:22:59.483Z,99166.22
2023-07-27T23:25:28.481Z,99175.81
2023-07-27T23:27:56.526Z,99163.75
2023-07-27T23:30:24.223Z,99164.63
2023-07-27T23:32:51.837Z,99174.19
2023-07-27T23:35:19.572Z,99179.50
2023-07-27T23:37:47.752Z,99183.84
2023-07-27T23:40:15.602Z,99175.03
2023-07-27T23:42:44.881Z,99169.81
2023-07-27T23:45:12.565Z,99172.44
2023-07-27T23:47:40.197Z,99173.28
2023-07-27T23:50:08.749Z,99173.19
2023-07-27T23:52:36.431Z,99186.22
2023-07-27T23:55:04.427Z,99181.91
2023-07-27T23:57:32.127Z,99176.69
